Time;durP1;ratioP1;P1;durP2;ratioP2;P2;SDS_P1;SDS_P2;PMS_P1;PMS_P2;Temp;Humidity;BMP_temperature;BMP_pressure;BME280_temperature;BME280_humidity;BME280_pressure;Samples;Min_cycle;Max_cycle;Signal;HPM_P1;HPM_P2
2023/03/17 00:01:27;;;;;;;4.70;4.40;;;9.00;99.90;;;;;;4987125;28;20171;-80
2023/03/17 00:03:53;;;;;;;5.03;4.63;;;9.00;99.90;;;;;;4987184;28;20272;-80
2023/03/17 00:06:31;;;;;;;4.87;4.47;;;8.90;99.90;;;;;;5001516;28;20720;-80
2023/03/17 00:08:57;;;;;;;5.53;4.70;;;9.00;99.90;;;;;;4982513;28;20239;-80
2023/03/17 00:11:25;;;;;;;6.43;4.77;;;8.90;99.90;;;;;;4982754;28;20565;-80
2023/03/17 00:13:51;;;;;;;5.03;4.63;;;9.00;99.90;;;;;;4981980;28;20203;-80
2023/03/17 00:16:26;;;;;;;5.70;4.70;;;9.00;99.90;;;;;;5000873;28;20226;-80
2023/03/17 00:18:53;;;;;;;5.67;4.97;;;8.90;99.90;;;;;;4983839;28;20250;-80
2023/03/17 00:21:29;;;;;;;4.57;4.17;;;8.90;99.90;;;;;;4999384;28;20173;-80
2023/03/17 00:23:56;;;;;;;6.50;4.90;;;8.90;99.90;;;;;;5000002;28;20191;-80
2023/03/17 00:26:23;;;;;;;5.77;4.60;;;8.90;99.90;;;;;;5000232;28;20192;-80
2023/03/17 00:28:49;;;;;;;5.33;4.83;;;8.90;99.90;;;;;;5000527;28;20522;-80
2023/03/17 00:31:21;;;;;;;5.50;5.00;;;8.80;99.90;;;;;;4982602;28;20649;-80
2023/03/17 00:33:48;;;;;;;6.07;5.20;;;8.80;99.90;;;;;;4983543;28;20181;-80
2023/03/17 00:36:29;;;;;;;6.03;4.77;;;8.90;99.90;;;;;;4982484;28;20232;-80
2023/03/17 00:38:56;;;;;;;5.43;4.93;;;9.00;99.90;;;;;;4999576;28;20176;-80
2023/03/17 00:41:22;;;;;;;5.40;4.77;;;9.10;99.90;;;;;;5000024;28;20558;-80
2023/03/17 00:43:49;;;;;;;6.27;5.30;;;9.10;99.90;;;;;;4999621;28;20548;-80
2023/03/17 00:46:20;;;;;;;5.43;4.93;;;9.10;99.90;;;;;;4999248;28;20192;-80
2023/03/17 00:48:47;;;;;;;5.90;4.50;;;9.10;99.90;;;;;;4981799;28;20290;-80
2023/03/17 00:51:15;;;;;;;5.80;4.93;;;9.00;99.90;;;;;;4999819;28;20259;-80
2023/03/17 00:53:41;;;;;;;4.90;4.37;;;9.00;99.90;;;;;;4982129;28;20187;-80
2023/03/17 00:56:15;;;;;;;4.80;4.40;;;9.00;99.90;;;;;;4999534;28;20200;-80
2023/03/17 00:58:42;;;;;;;5.33;4.70;;;8.90;99.90;;;;;;4999859;28;20176;-80
2023/03/17 01:01:09;;;;;;;5.30;4.70;;;9.00;99.90;;;;;;4999676;28;20184;-80
2023/03/17 01:03:35;;;;;;;6.80;4.97;;;9.00;99.90;;;;;;5000006;28;20512;-80
2023/03/17 01:06:03;;;;;;;7.40;4.80;;;9.10;99.90;;;;;;4999658;28;20177;-80
2023/03/17 01:08:30;;;;;;;4.97;4.50;;;9.00;99.90;;;;;;5000405;28;20173;-80
2023/03/17 01:10:56;;;;;;;6.87;4.73;;;9.00;99.90;;;;;;4982739;28;20271;-80
2023/03/17 01:13:22;;;;;;;5.73;4.83;;;9.00;99.90;;;;;;4981545;28;20181;-80
2023/03/17 01:15:49;;;;;;;5.03;4.53;;;9.10;99.90;;;;;;4999618;28;20169;-80
2023/03/17 01:18:18;;;;;;;4.90;4.50;;;9.20;99.90;;;;;;4999952;28;20183;-80
2023/03/17 01:20:44;;;;;;;7.13;4.90;;;9.20;99.90;;;;;;4999243;28;20301;-80
2023/03/17 01:23:11;;;;;;;5.50;5.00;;;9.10;99.90;;;;;;4981959;28;20247;-80
2023/03/17 01:25:38;;;;;;;7.73;5.37;;;9.10;99.90;;;;;;4981321;28;20184;-80
2023/03/17 01:28:05;;;;;;;6.10;5.50;;;9.20;99.90;;;;;;4980662;28;20208;-80
2023/03/17 01:30:37;;;;;;;5.90;5.23;;;9.20;99.90;;;;;;4998103;28;20216;-80
2023/03/17 01:33:03;;;;;;;5.47;4.70;;;9.10;99.90;;;;;;4999810;28;20196;-80
2023/03/17 01:35:30;;;;;;;6.03;4.77;;;9.00;99.90;;;;;;5004517;28;20184;-82
2023/03/17 01:37:57;;;;;;;5.23;4.73;;;9.00;99.90;;;;;;4990716;28;20211;-84
2023/03/17 01:40:30;;;;;;;5.23;4.83;;;8.90;99.90;;;;;;5005506;28;20180;-84
2023/03/17 01:43:05;;;;;;;5.33;4.70;;;8.80;99.90;;;;;;5005040;28;20168;-84
2023/03/17 01:46:08;;;;;;;6.23;4.70;;;8.80;99.90;;;;;;5005165;28;20172;-83
2023/03/17 01:48:41;;;;;;;5.43;4.93;;;8.70;99.90;;;;;;4987208;28;20254;-84
2023/03/17 01:51:11;;;;;;;6.83;4.80;;;8.80;99.90;;;;;;5004201;28;20172;-84
2023/03/17 01:53:38;;;;;;;6.23;4.70;;;8.70;99.90;;;;;;4987121;28;20181;-84
2023/03/17 01:56:05;;;;;;;5.50;5.00;;;8.80;99.90;;;;;;5005307;28;20200;-83
2023/03/17 01:58:32;;;;;;;6.00;4.23;;;8.80;99.90;;;;;;4986750;28;20181;-84
2023/03/17 02:00:58;;;;;;;7.23;5.00;;;8.90;99.90;;;;;;5004357;28;20176;-84
2023/03/17 02:03:25;;;;;;;5.60;4.40;;;9.00;99.90;;;;;;5004663;28;20641;-83
2023/03/17 02:05:52;;;;;;;6.90;4.97;;;9.10;99.90;;;;;;4987251;28;20188;-83
2023/03/17 02:08:18;;;;;;;6.20;5.17;;;9.20;99.90;;;;;;5004552;28;20661;-83
2023/03/17 02:10:48;;;;;;;6.77;4.93;;;9.20;99.90;;;;;;4986802;28;20192;-84
2023/03/17 02:13:15;;;;;;;5.77;5.00;;;9.10;99.90;;;;;;4986672;28;20231;-84
2023/03/17 02:15:49;;;;;;;5.00;4.50;;;9.00;99.90;;;;;;5004296;28;20185;-84
2023/03/17 02:18:17;;;;;;;4.63;4.20;;;9.00;99.90;;;;;;5004601;28;20161;-84
2023/03/17 02:21:07;;;;;;;5.67;5.10;;;9.00;99.90;;;;;;5004147;28;20181;-85
2023/03/17 02:23:32;;;;;;;5.93;4.80;;;9.00;99.90;;;;;;5004056;28;20270;-84
2023/03/17 02:25:58;;;;;;;5.27;4.83;;;9.00;99.90;;;;;;4986380;28;20185;-84
2023/03/17 02:28:29;;;;;;;5.13;4.57;;;9.00;99.90;;;;;;4986948;28;20646;-84
2023/03/17 02:30:56;;;;;;;7.80;5.03;;;9.00;99.90;;;;;;4987386;28;20235;-83
2023/03/17 02:33:21;;;;;;;4.80;4.40;;;9.10;99.90;;;;;;4986455;28;20184;-84
2023/03/17 02:35:47;;;;;;;5.83;4.40;;;9.10;99.90;;;;;;5003685;28;20715;-84
2023/03/17 02:38:13;;;;;;;4.93;4.50;;;9.00;99.90;;;;;;5003868;28;20717;-83
2023/03/17 02:40:39;;;;;;;5.60;4.20;;;8.90;99.90;;;;;;5003811;28;20230;-85
2023/03/17 02:43:05;;;;;;;4.97;4.47;;;8.80;99.90;;;;;;5002320;28;20262;-84
2023/03/17 02:45:31;;;;;;;5.20;4.40;;;8.80;99.90;;;;;;4983936;28;20181;-84
2023/03/17 02:47:57;;;;;;;5.00;4.50;;;8.80;99.90;;;;;;4985426;28;20223;-84
2023/03/17 02:50:26;;;;;;;6.80;4.47;;;8.70;99.90;;;;;;4986476;28;20191;-84
2023/03/17 02:52:52;;;;;;;4.90;4.50;;;8.70;99.90;;;;;;4985545;28;20189;-84
2023/03/17 02:55:18;;;;;;;4.60;4.20;;;8.70;99.90;;;;;;4985883;28;20238;-84
2023/03/17 02:57:43;;;;;;;4.87;4.47;;;8.70;99.90;;;;;;5003402;28;20251;-84
2023/03/17 03:00:10;;;;;;;5.23;4.70;;;8.70;99.90;;;;;;4986439;28;20185;-84
2023/03/17 03:02:37;;;;;;;6.57;4.60;;;8.60;99.90;;;;;;4986022;28;20187;-84
2023/03/17 03:05:04;;;;;;;6.43;4.70;;;8.60;99.90;;;;;;4986881;28;20200;-84
2023/03/17 03:07:30;;;;;;;5.73;4.30;;;8.60;99.90;;;;;;4985119;28;20628;-83
2023/03/17 03:09:55;;;;;;;5.00;4.50;;;8.50;99.90;;;;;;4991739;28;20180;-83
2023/03/17 03:12:21;;;;;;;7.53;4.73;;;8.50;99.90;;;;;;4995499;28;20220;-83
2023/03/17 03:14:47;;;;;;;7.10;4.80;;;8.60;99.90;;;;;;5000149;28;20235;-83
2023/03/17 03:17:14;;;;;;;6.63;4.53;;;8.60;99.90;;;;;;5001064;28;20291;-84
2023/03/17 03:19:39;;;;;;;6.07;4.70;;;8.60;99.90;;;;;;4982972;28;20275;-84
2023/03/17 03:22:05;;;;;;;5.17;4.67;;;8.50;99.90;;;;;;4983363;28;20208;-84
2023/03/17 03:24:31;;;;;;;5.10;4.50;;;8.50;99.90;;;;;;5001434;28;20250;-84
2023/03/17 03:26:57;;;;;;;5.80;4.70;;;8.40;99.90;;;;;;5002025;28;20202;-85
2023/03/17 03:29:22;;;;;;;5.43;4.93;;;8.40;99.90;;;;;;5004558;28;20284;-84
2023/03/17 03:31:48;;;;;;;4.60;4.30;;;8.30;99.90;;;;;;4988094;28;20185;-84
2023/03/17 03:34:14;;;;;;;5.80;4.83;;;8.40;99.90;;;;;;4987344;28;20199;-84
2023/03/17 03:36:40;;;;;;;6.30;4.60;;;8.40;99.90;;;;;;4986132;28;20212;-83
2023/03/17 03:39:07;;;;;;;5.03;4.53;;;8.40;99.90;;;;;;4985631;28;20551;-84
2023/03/17 03:41:33;;;;;;;4.83;4.40;;;8.40;99.90;;;;;;5003257;28;20180;-83
2023/03/17 03:44:00;;;;;;;5.70;5.10;;;8.50;99.90;;;;;;5002863;28;20223;-84
2023/03/17 03:46:26;;;;;;;7.00;5.03;;;8.60;99.90;;;;;;4984863;28;20212;-83
2023/03/17 03:48:52;;;;;;;5.13;4.60;;;8.60;99.90;;;;;;5002474;28;20181;-83
2023/03/17 03:51:18;;;;;;;6.37;4.53;;;8.60;99.90;;;;;;4984429;28;20557;-83
2023/03/17 03:53:44;;;;;;;5.13;4.73;;;8.60;99.90;;;;;;5002222;28;20183;-84
2023/03/17 03:56:10;;;;;;;5.37;4.80;;;8.50;99.90;;;;;;4984303;28;20266;-83
2023/03/17 03:58:36;;;;;;;5.87;5.27;;;8.50;99.90;;;;;;5000508;28;20207;-84
2023/03/17 04:01:06;;;;;;;5.03;4.63;;;8.60;99.90;;;;;;5000758;28;20180;-84
2023/03/17 04:03:32;;;;;;;5.97;5.20;;;8.60;99.90;;;;;;5001941;28;20180;-83
2023/03/17 04:05:58;;;;;;;5.30;4.80;;;8.60;99.90;;;;;;5001526;28;20239;-83
2023/03/17 04:08:24;;;;;;;5.77;4.20;;;8.60;99.90;;;;;;4984622;28;20188;-84
2023/03/17 04:10:50;;;;;;;4.93;4.53;;;8.80;99.90;;;;;;5008286;28;20183;-84
2023/03/17 04:13:16;;;;;;;5.20;4.80;;;8.80;99.90;;;;;;4984672;28;20271;-84
2023/03/17 04:15:41;;;;;;;5.17;4.67;;;8.90;99.90;;;;;;5001567;28;20211;-84
2023/03/17 04:18:08;;;;;;;6.50;4.43;;;8.90;99.90;;;;;;4984554;28;20204;-84
2023/03/17 04:20:34;;;;;;;4.80;4.40;;;9.00;99.90;;;;;;4984103;28;20180;-84
2023/03/17 04:23:00;;;;;;;5.00;4.60;;;9.00;99.90;;;;;;5002133;28;20708;-83
2023/03/17 04:25:26;;;;;;;4.63;4.27;;;9.00;99.90;;;;;;5002130;28;20669;-84
2023/03/17 04:27:52;;;;;;;5.97;4.40;;;9.10;99.90;;;;;;4984055;28;20243;-83
2023/03/17 04:30:17;;;;;;;4.90;4.50;;;9.20;99.90;;;;;;5001885;28;20267;-83
2023/03/17 04:32:44;;;;;;;5.30;4.80;;;9.30;99.90;;;;;;5001987;28;20185;-83
2023/03/17 04:35:18;;;;;;;4.97;4.50;;;9.30;99.90;;;;;;4983709;28;20657;-83
2023/03/17 04:37:44;;;;;;;7.73;5.00;;;9.30;99.90;;;;;;4984387;28;20239;-83
2023/03/17 04:40:12;;;;;;;5.17;4.77;;;9.20;99.90;;;;;;4984870;28;20231;-83
2023/03/17 04:42:38;;;;;;;5.20;4.80;;;9.20;99.90;;;;;;4984532;28;20283;-83
2023/03/17 04:45:05;;;;;;;5.00;4.50;;;9.20;99.90;;;;;;5001072;28;20227;-83
2023/03/17 04:47:32;;;;;;;5.40;4.90;;;9.10;99.90;;;;;;4984602;28;20231;-83
2023/03/17 04:49:57;;;;;;;4.87;4.40;;;9.10;99.90;;;;;;4983893;28;20195;-83
2023/03/17 04:52:23;;;;;;;5.20;4.80;;;9.00;99.90;;;;;;4983858;28;20274;-83
2023/03/17 04:54:49;;;;;;;7.13;4.70;;;9.00;99.90;;;;;;4983870;28;20641;-83
2023/03/17 04:57:14;;;;;;;6.20;4.77;;;9.10;99.90;;;;;;5001658;28;20209;-83
2023/03/17 04:59:40;;;;;;;7.80;5.03;;;9.00;99.90;;;;;;4984513;28;20172;-84
2023/03/17 05:02:06;;;;;;;5.77;4.50;;;9.00;99.90;;;;;;5001486;28;20173;-84
2023/03/17 05:04:32;;;;;;;5.40;4.13;;;9.00;99.90;;;;;;5001345;28;20633;-84
2023/03/17 05:06:59;;;;;;;4.63;4.23;;;9.00;99.90;;;;;;4985297;28;20205;-80
2023/03/17 05:09:27;;;;;;;5.30;4.40;;;8.90;99.90;;;;;;5002487;28;20187;-80
2023/03/17 05:11:53;;;;;;;4.90;4.50;;;8.80;99.90;;;;;;4985233;28;20584;-80
2023/03/17 05:14:19;;;;;;;4.80;4.43;;;8.60;99.90;;;;;;4984254;28;20223;-80
2023/03/17 05:16:49;;;;;;;5.87;4.50;;;8.60;99.90;;;;;;4984443;28;20227;-80
2023/03/17 05:19:15;;;;;;;5.37;4.87;;;8.50;99.90;;;;;;4985219;28;20184;-79
2023/03/17 05:21:41;;;;;;;4.90;4.40;;;8.50;99.90;;;;;;4984970;28;20275;-79
2023/03/17 05:24:07;;;;;;;5.10;4.57;;;8.60;99.90;;;;;;4984761;28;20223;-79
2023/03/17 05:26:34;;;;;;;7.27;4.77;;;8.50;99.90;;;;;;4985095;28;20208;-80
2023/03/17 05:29:00;;;;;;;5.10;4.60;;;8.60;99.90;;;;;;5002313;28;20634;-79
2023/03/17 05:31:26;;;;;;;4.97;4.57;;;8.60;99.90;;;;;;4984604;28;20184;-79
2023/03/17 05:33:52;;;;;;;4.97;4.57;;;8.70;99.90;;;;;;5001447;28;20183;-79
2023/03/17 05:36:18;;;;;;;5.23;4.83;;;8.80;99.90;;;;;;5001439;28;20212;-79
2023/03/17 05:38:44;;;;;;;5.10;4.60;;;8.90;99.90;;;;;;5000977;28;20676;-79
2023/03/17 05:41:11;;;;;;;5.43;4.67;;;8.90;99.90;;;;;;5001813;28;20172;-79
2023/03/17 05:43:37;;;;;;;5.10;4.70;;;8.90;99.90;;;;;;5001249;28;20234;-79
2023/03/17 05:46:03;;;;;;;5.20;4.70;;;9.00;99.90;;;;;;5001064;28;20546;-79
2023/03/17 05:48:29;;;;;;;5.00;4.50;;;8.90;99.90;;;;;;4984567;28;20196;-79
2023/03/17 05:50:54;;;;;;;6.60;4.50;;;8.80;99.90;;;;;;5002148;28;20203;-79
2023/03/17 05:53:21;;;;;;;4.90;4.50;;;8.80;99.90;;;;;;4983712;28;20188;-79
2023/03/17 05:55:47;;;;;;;5.30;4.80;;;8.70;99.90;;;;;;5001011;28;20180;-79
2023/03/17 05:58:14;;;;;;;5.13;4.67;;;8.60;99.90;;;;;;4984548;28;20228;-79
2023/03/17 06:00:40;;;;;;;5.10;4.60;;;8.60;99.90;;;;;;4983267;28;20181;-79
2023/03/17 06:03:07;;;;;;;6.33;4.83;;;8.50;99.90;;;;;;4983477;28;20191;-79
2023/03/17 06:05:33;;;;;;;6.33;4.93;;;8.50;99.90;;;;;;4982516;28;20633;-79
2023/03/17 06:07:59;;;;;;;6.20;4.57;;;8.60;99.90;;;;;;4998772;28;20192;-79
2023/03/17 06:10:26;;;;;;;5.90;5.10;;;8.60;99.90;;;;;;4981167;28;20181;-79
2023/03/17 06:12:51;;;;;;;5.13;4.43;;;8.60;99.90;;;;;;4998086;28;20549;-79
2023/03/17 06:15:19;;;;;;;4.80;4.40;;;8.60;99.90;;;;;;4998288;28;20191;-79
2023/03/17 06:17:45;;;;;;;5.40;4.87;;;8.60;99.90;;;;;;4980915;28;20215;-80
2023/03/17 06:20:12;;;;;;;4.93;4.50;;;8.60;99.90;;;;;;4999086;28;20176;-80
2023/03/17 06:22:38;;;;;;;4.90;4.50;;;8.60;99.90;;;;;;4998769;28;20177;-80
2023/03/17 06:25:04;;;;;;;7.03;4.70;;;8.50;99.90;;;;;;4997724;28;20161;-80
2023/03/17 06:27:31;;;;;;;4.73;4.40;;;8.60;99.90;;;;;;4999304;28;20209;-80
2023/03/17 06:29:58;;;;;;;4.83;4.43;;;8.70;99.90;;;;;;4982801;28;20189;-80
2023/03/17 06:32:23;;;;;;;5.53;4.57;;;8.80;99.90;;;;;;4981657;28;20188;-79
2023/03/17 06:34:50;;;;;;;4.80;4.40;;;8.80;99.90;;;;;;4998591;28;20187;-79
2023/03/17 06:37:16;;;;;;;5.27;4.87;;;8.80;99.90;;;;;;4998321;28;20212;-80
2023/03/17 06:39:42;;;;;;;5.43;4.93;;;8.80;99.90;;;;;;4997668;28;20177;-80
2023/03/17 06:42:08;;;;;;;5.07;4.43;;;9.00;99.90;;;;;;4997441;28;20172;-80
2023/03/17 06:44:35;;;;;;;5.23;4.53;;;9.10;99.90;;;;;;4979512;28;20267;-80
2023/03/17 06:47:01;;;;;;;5.20;4.70;;;9.10;99.90;;;;;;4979547;28;20272;-80
2023/03/17 06:49:27;;;;;;;5.23;4.50;;;9.20;99.90;;;;;;4979384;28;20180;-80
2023/03/17 06:51:53;;;;;;;5.03;4.57;;;9.10;99.90;;;;;;4997110;28;20181;-80
2023/03/17 06:54:22;;;;;;;4.90;4.50;;;9.10;99.90;;;;;;4996982;28;20673;-80
2023/03/17 06:56:48;;;;;;;5.13;4.63;;;9.10;99.90;;;;;;4997155;28;20294;-80
2023/03/17 06:59:14;;;;;;;5.27;4.53;;;9.30;99.90;;;;;;4998303;28;20208;-80
2023/03/17 07:01:39;;;;;;;6.00;5.07;;;9.40;99.90;;;;;;5000815;28;20243;-80
2023/03/17 07:04:05;;;;;;;7.00;5.27;;;9.40;99.90;;;;;;4983954;28;20187;-83
2023/03/17 07:06:32;;;;;;;5.10;4.70;;;9.50;99.90;;;;;;4985279;28;20236;-83
2023/03/17 07:08:58;;;;;;;5.13;4.63;;;9.60;99.90;;;;;;5002134;28;20549;-83
2023/03/17 07:11:25;;;;;;;4.97;4.47;;;9.60;99.90;;;;;;5001898;28;20184;-83
2023/03/17 07:13:51;;;;;;;6.70;5.10;;;9.70;99.90;;;;;;4984106;28;20267;-83
2023/03/17 07:16:19;;;;;;;5.93;4.80;;;9.80;99.90;;;;;;5001095;28;20208;-82
2023/03/17 07:18:46;;;;;;;5.67;4.30;;;9.90;99.90;;;;;;4982556;28;20184;-82
2023/03/17 07:21:11;;;;;;;4.70;4.30;;;9.90;99.90;;;;;;4982703;28;20204;-82
2023/03/17 07:23:37;;;;;;;6.10;4.60;;;10.10;99.90;;;;;;4982432;28;20199;-82
2023/03/17 07:26:03;;;;;;;7.53;4.80;;;10.10;99.90;;;;;;4982264;28;20196;-82
2023/03/17 07:28:29;;;;;;;5.70;4.63;;;10.20;99.90;;;;;;4981889;28;20196;-82
2023/03/17 07:30:56;;;;;;;5.13;4.60;;;10.30;99.90;;;;;;4978915;28;20191;-82
2023/03/17 07:33:23;;;;;;;5.90;4.60;;;10.40;99.90;;;;;;4979983;28;20192;-83
2023/03/17 07:35:50;;;;;;;4.87;4.37;;;10.60;99.90;;;;;;4997438;28;20177;-83
2023/03/17 07:38:17;;;;;;;4.30;3.90;;;10.70;99.90;;;;;;4979847;28;20196;-83
2023/03/17 07:40:47;;;;;;;4.43;4.10;;;10.90;99.90;;;;;;4997928;28;20235;-83
2023/03/17 07:43:15;;;;;;;5.67;4.33;;;11.10;99.90;;;;;;4980594;28;20267;-83
2023/03/17 07:45:45;;;;;;;4.05;3.67;;;11.20;99.90;;;;;;4996611;28;20264;-83
2023/03/17 07:48:11;;;;;;;4.97;4.10;;;11.30;99.90;;;;;;4997120;28;20275;-83
2023/03/17 07:50:37;;;;;;;5.18;4.47;;;11.40;99.90;;;;;;4997457;28;20204;-83
2023/03/17 07:53:04;;;;;;;4.85;4.40;;;11.50;99.90;;;;;;4998531;28;20183;-83
2023/03/17 07:55:31;;;;;;;5.30;3.88;;;11.60;99.90;;;;;;4997035;28;20626;-83
2023/03/17 07:57:57;;;;;;;5.03;4.50;;;11.70;99.90;;;;;;4998172;28;20287;-82
2023/03/17 08:00:22;;;;;;;5.22;4.35;;;11.80;99.90;;;;;;4998159;28;20208;-82
2023/03/17 08:02:50;;;;;;;5.90;4.28;;;11.90;99.90;;;;;;4981648;28;20181;-83
2023/03/17 08:05:16;;;;;;;5.10;4.00;;;12.10;99.90;;;;;;4982888;28;20656;-83
2023/03/17 08:07:42;;;;;;;4.63;4.20;;;12.30;99.90;;;;;;4998929;28;20200;-83
2023/03/17 08:10:11;;;;;;;7.40;4.00;;;12.40;99.90;;;;;;5001762;28;20187;-83
2023/03/17 08:12:38;;;;;;;4.30;3.90;;;12.50;99.90;;;;;;4999433;28;20267;-83
2023/03/17 08:15:05;;;;;;;6.10;4.43;;;12.60;99.90;;;;;;4984890;28;20223;-83
2023/03/17 08:17:30;;;;;;;5.03;4.53;;;12.70;99.90;;;;;;4983645;28;20578;-83
2023/03/17 08:19:57;;;;;;;6.30;4.03;;;12.80;99.90;;;;;;4987054;28;20176;-83
2023/03/17 08:22:23;;;;;;;4.35;3.95;;;12.80;99.90;;;;;;4999431;28;20602;-83
2023/03/17 08:24:49;;;;;;;4.20;3.80;;;12.80;99.90;;;;;;4998226;28;20172;-83
2023/03/17 08:27:16;;;;;;;5.90;4.10;;;12.90;99.90;;;;;;4981310;28;20298;-83
2023/03/17 08:29:41;;;;;;;6.35;4.13;;;12.80;99.90;;;;;;4981161;28;20176;-83
2023/03/17 08:32:08;;;;;;;5.63;4.30;;;12.80;99.90;;;;;;4980548;28;20180;-83
2023/03/17 08:34:34;;;;;;;4.45;4.00;;;12.70;99.90;;;;;;4980163;28;20184;-83
2023/03/17 08:37:01;;;;;;;4.20;3.80;;;12.70;99.90;;;;;;4996900;28;20208;-83
2023/03/17 08:39:27;;;;;;;6.00;4.30;;;12.70;99.90;;;;;;4997292;28;20538;-83
2023/03/17 08:41:53;;;;;;;9.05;4.00;;;12.60;99.90;;;;;;4982818;28;20275;-83
2023/03/17 08:44:20;;;;;;;5.72;4.40;;;12.60;99.90;;;;;;5001921;28;20211;-83
2023/03/17 08:46:48;;;;;;;4.38;3.90;;;12.60;99.90;;;;;;5002061;28;20189;-83
2023/03/17 08:49:15;;;;;;;4.53;4.13;;;12.60;99.90;;;;;;4999850;28;20259;-83
2023/03/17 08:51:41;;;;;;;4.93;3.88;;;12.70;99.90;;;;;;4982234;28;20180;-83
2023/03/17 08:54:07;;;;;;;5.50;4.20;;;12.80;99.90;;;;;;4983831;28;20262;-83
2023/03/17 08:56:33;;;;;;;4.30;3.90;;;12.80;99.90;;;;;;4998617;28;20437;-83
2023/03/17 08:58:59;;;;;;;5.43;4.10;;;12.80;99.90;;;;;;4983338;28;20217;-83
2023/03/17 09:01:26;;;;;;;5.72;4.00;;;12.80;99.90;;;;;;4999849;28;20169;-83
2023/03/17 09:03:55;;;;;;;5.07;4.15;;;12.80;99.90;;;;;;5003888;28;20172;-83
2023/03/17 09:06:21;;;;;;;4.88;4.20;;;12.80;99.90;;;;;;4983125;28;20200;-82
2023/03/17 09:08:53;;;;;;;5.97;4.18;;;12.80;99.90;;;;;;5000336;28;20187;-83
2023/03/17 09:11:22;;;;;;;4.07;3.78;;;12.80;99.90;;;;;;4999091;28;20161;-83
2023/03/17 09:13:50;;;;;;;4.40;3.85;;;12.70;99.90;;;;;;4983319;28;20225;-83
2023/03/17 09:16:16;;;;;;;5.57;3.88;;;12.70;99.90;;;;;;4986596;28;20212;-83
2023/03/17 09:18:43;;;;;;;5.65;3.80;;;12.70;99.90;;;;;;5001872;28;20172;-83
2023/03/17 09:21:11;;;;;;;4.40;4.00;;;12.80;99.90;;;;;;5001010;28;20169;-83
2023/03/17 09:23:37;;;;;;;6.72;4.10;;;12.90;99.90;;;;;;4985975;28;20231;-83
2023/03/17 09:26:03;;;;;;;4.57;4.18;;;13.00;99.90;;;;;;4982952;28;20188;-83
2023/03/17 09:28:28;;;;;;;4.75;3.60;;;13.10;99.90;;;;;;5000087;28;20199;-83
2023/03/17 09:31:02;;;;;;;5.93;3.92;;;13.20;99.90;;;;;;4998408;28;20183;-83
2023/03/17 09:33:29;;;;;;;4.45;3.97;;;13.30;99.90;;;;;;4978948;28;20192;-83
2023/03/17 09:35:58;;;;;;;5.25;3.70;;;13.40;99.90;;;;;;4979666;28;20180;-82
2023/03/17 09:38:25;;;;;;;4.40;3.60;;;13.60;99.90;;;;;;4979791;28;20207;-83
2023/03/17 09:41:10;;;;;;;6.60;3.95;;;13.80;99.90;;;;;;5002031;28;20175;-83
2023/03/17 09:43:41;;;;;;;3.92;3.53;;;14.00;99.90;;;;;;5003298;28;20156;-83
2023/03/17 09:46:47;;;;;;;6.10;3.90;;;14.10;99.90;;;;;;4982311;28;20252;-82
2023/03/17 09:49:21;;;;;;;6.05;3.90;;;14.20;99.90;;;;;;4997331;28;20165;-83
2023/03/17 09:51:48;;;;;;;4.03;3.60;;;14.30;99.90;;;;;;4979087;28;20702;-83
2023/03/17 09:54:14;;;;;;;5.72;3.45;;;14.30;99.90;;;;;;4981597;28;20188;-83
2023/03/17 09:56:45;;;;;;;5.85;3.53;;;14.30;99.90;;;;;;5004122;28;20215;-83
2023/03/17 09:59:31;;;;;;;3.47;3.15;;;14.30;99.90;;;;;;4986630;28;20188;-82
2023/03/17 10:01:56;;;;;;;3.85;3.50;;;14.40;99.90;;;;;;5000748;28;20173;-82
2023/03/17 10:04:22;;;;;;;4.10;3.50;;;14.40;99.90;;;;;;4984766;28;20187;-82
2023/03/17 10:06:49;;;;;;;6.85;3.35;;;14.40;99.90;;;;;;5002938;28;20192;-82
2023/03/17 10:09:40;;;;;;;4.68;3.85;;;14.40;99.90;;;;;;5003338;28;20172;-83
2023/03/17 10:12:19;;;;;;;5.18;3.50;;;14.40;99.90;;;;;;5004644;28;20228;-83
2023/03/17 10:15:05;;;;;;;4.45;3.63;;;14.60;99.90;;;;;;4986908;28;20649;-83
2023/03/17 10:17:35;;;;;;;4.72;3.40;;;14.60;99.90;;;;;;4987319;28;20234;-83
2023/03/17 10:20:15;;;;;;;7.78;4.00;;;14.50;99.90;;;;;;4986180;28;20637;-83
2023/03/17 10:22:51;;;;;;;5.68;3.70;;;14.60;99.90;;;;;;4991626;28;20204;-84
2023/03/17 10:25:43;;;;;;;3.58;3.17;;;14.70;99.90;;;;;;4987942;28;20660;-83
2023/03/17 10:28:25;;;;;;;3.85;3.50;;;14.80;99.90;;;;;;4982341;28;20240;-83
2023/03/17 10:30:52;;;;;;;4.40;3.72;;;15.00;99.90;;;;;;5004634;28;20176;-83
2023/03/17 10:33:19;;;;;;;4.63;3.50;;;15.00;99.90;;;;;;5007534;28;20173;-83
2023/03/17 10:35:46;;;;;;;3.47;3.17;;;15.10;99.90;;;;;;5004952;28;20544;-83
2023/03/17 10:38:18;;;;;;;4.80;4.00;;;15.20;99.90;;;;;;4986245;28;20701;-84
2023/03/17 10:40:47;;;;;;;3.33;3.03;;;15.40;99.90;;;;;;4985574;28;20243;-83
2023/03/17 10:43:19;;;;;;;4.32;3.40;;;15.50;99.90;;;;;;4984958;28;20235;-83
2023/03/17 10:46:03;;;;;;;4.63;3.30;;;15.60;99.90;;;;;;5003047;28;20191;-83
2023/03/17 10:48:34;;;;;;;5.70;3.72;;;15.60;99.90;;;;;;4985685;28;20176;-83
2023/03/17 10:51:07;;;;;;;6.90;4.07;;;15.70;99.90;;;;;;5001903;28;20161;-83
2023/03/17 10:53:41;;;;;;;4.20;3.67;;;15.60;99.90;;;;;;5003066;28;20171;-83
2023/03/17 10:56:17;;;;;;;4.22;3.30;;;15.50;99.90;;;;;;4984260;28;20174;-80
2023/03/17 10:58:49;;;;;;;6.40;3.30;;;15.50;99.90;;;;;;5001346;28;20185;-81
2023/03/17 11:01:33;;;;;;;4.38;3.40;;;15.50;99.90;;;;;;4983586;28;20629;-81
2023/03/17 11:04:01;;;;;;;3.30;2.80;;;15.70;99.90;;;;;;5000099;28;20228;-81
2023/03/17 11:06:41;;;;;;;6.35;3.17;;;15.90;99.90;;;;;;4998406;28;20639;-83
2023/03/17 11:09:18;;;;;;;3.83;3.38;;;16.00;99.90;;;;;;4998972;28;20168;-83
2023/03/17 11:11:45;;;;;;;4.13;3.00;;;16.20;99.90;;;;;;4981135;28;20277;-83
2023/03/17 11:14:14;;;;;;;4.18;3.30;;;16.40;99.90;;;;;;4999007;28;20177;-83
2023/03/17 11:17:10;;;;;;;3.55;3.22;;;16.50;99.90;;;;;;4998630;28;20207;-83
2023/03/17 11:19:41;;;;;;;3.42;3.13;;;16.70;99.90;;;;;;4976640;28;20638;-83
2023/03/17 11:22:14;;;;;;;4.50;3.10;;;16.80;99.90;;;;;;4981648;28;20185;-83
2023/03/17 11:25:03;;;;;;;5.25;3.30;;;17.00;99.90;;;;;;4981797;28;20283;-83
2023/03/17 11:27:54;;;;;;;5.00;3.33;;;17.00;99.90;;;;;;4982357;28;20200;-83
2023/03/17 11:30:37;;;;;;;4.47;3.00;;;17.10;99.90;;;;;;4980486;28;20177;-83
2023/03/17 11:33:21;;;;;;;5.93;3.03;;;17.10;99.90;;;;;;4980602;28;20638;-83
2023/03/17 11:35:59;;;;;;;6.85;3.20;;;17.10;99.90;;;;;;4998445;28;20168;-83
2023/03/17 11:38:59;;;;;;;5.50;3.22;;;17.20;99.90;;;;;;4999920;28;20195;-84
2023/03/17 11:41:26;;;;;;;4.13;3.20;;;17.30;99.90;;;;;;4977929;28;20231;-84
2023/03/17 11:44:11;;;;;;;6.45;3.15;;;17.50;99.90;;;;;;4981076;28;20184;-84
2023/03/17 11:46:43;;;;;;;5.93;2.90;;;17.40;99.90;;;;;;4981158;28;20208;-83
2023/03/17 11:49:45;;;;;;;6.97;3.55;;;17.40;99.90;;;;;;5001932;28;20630;-83
2023/03/17 11:52:31;;;;;;;5.25;3.00;;;17.40;99.90;;;;;;4997677;28;20196;-83
2023/03/17 11:55:13;;;;;;;3.33;3.00;;;17.60;99.90;;;;;;4998772;28;20525;-83
2023/03/17 11:58:00;;;;;;;5.28;2.75;;;17.60;99.90;;;;;;4998695;28;20215;-83
2023/03/17 12:00:32;;;;;;;3.88;3.10;;;17.80;99.90;;;;;;4998273;28;20642;-84
2023/03/17 12:03:23;;;;;;;5.68;3.03;;;17.90;99.90;;;;;;4981269;28;20176;-84
2023/03/17 12:05:54;;;;;;;4.70;3.10;;;17.80;99.90;;;;;;4981166;28;20217;-84
2023/03/17 12:08:34;;;;;;;4.00;3.20;;;17.50;99.90;;;;;;4998750;28;20189;-83
2023/03/17 12:11:04;;;;;;;6.05;3.30;;;17.30;99.90;;;;;;4999002;28;20518;-83
2023/03/17 12:13:40;;;;;;;3.55;3.00;;;17.30;99.90;;;;;;4980542;28;20185;-84
2023/03/17 12:16:14;;;;;;;3.53;3.25;;;17.10;99.90;;;;;;4997255;28;20159;-83
2023/03/17 12:18:45;;;;;;;6.28;3.22;;;17.00;99.90;;;;;;4998330;28;20239;-84
2023/03/17 12:21:20;;;;;;;3.55;2.80;;;17.00;99.90;;;;;;4998998;28;20161;-84
2023/03/17 12:23:59;;;;;;;4.95;3.15;;;17.00;99.90;;;;;;4998395;28;20183;-84
2023/03/17 12:26:54;;;;;;;4.25;3.00;;;17.00;99.90;;;;;;4999372;28;20199;-84
2023/03/17 12:29:25;;;;;;;2.95;2.70;;;17.00;99.90;;;;;;4985132;28;20196;-84
2023/03/17 12:32:19;;;;;;;3.47;3.17;;;17.00;99.90;;;;;;4982092;28;20230;-84
2023/03/17 12:35:11;;;;;;;4.60;3.15;;;16.90;99.90;;;;;;4999657;28;20193;-84
2023/03/17 12:37:39;;;;;;;3.92;3.13;;;16.90;99.90;;;;;;4983609;28;20677;-84
2023/03/17 12:40:16;;;;;;;3.47;3.10;;;17.00;99.90;;;;;;5001173;28;20670;-83
2023/03/17 12:42:58;;;;;;;3.40;3.10;;;17.00;99.90;;;;;;5000390;28;20649;-83
2023/03/17 12:45:27;;;;;;;5.13;3.25;;;17.10;99.90;;;;;;4998952;28;20168;-84
2023/03/17 12:47:55;;;;;;;7.15;3.30;;;17.10;99.90;;;;;;4982472;28;20204;-84
2023/03/17 12:50:27;;;;;;;5.65;3.13;;;17.00;99.90;;;;;;4980013;28;20180;-84
2023/03/17 12:53:18;;;;;;;5.95;3.40;;;17.10;99.90;;;;;;4980520;28;20236;-84
2023/03/17 12:55:48;;;;;;;3.45;3.13;;;17.10;99.90;;;;;;4979352;28;20204;-84
2023/03/17 12:58:32;;;;;;;3.45;3.15;;;17.00;99.90;;;;;;4980265;28;20227;-83
2023/03/17 13:01:00;;;;;;;3.35;2.80;;;17.00;99.90;;;;;;4980691;28;20234;-84
2023/03/17 13:03:29;;;;;;;5.35;3.33;;;17.00;99.90;;;;;;4998348;28;20196;-84
2023/03/17 13:06:01;;;;;;;3.35;2.80;;;17.10;99.90;;;;;;4998510;28;20255;-84